Terminal Aerodrome Forecast
Issued by NWS

Home | Current Version | Previous Version | Text Only | Print | Product List | Glossary On
Versions: 1 2 3 4 5 6 7 8 9 10 11 12 13 14 15 16
869
FTUS41 KPBZ 230733 AAA
TAFFKL
TAF AMD
KFKL 230733Z 2308/2406 20008KT P6SM OVC015
     FM230900 19010KT P6SM VCSH OVC006
     FM231800 22010KT P6SM OVC010
     FM232200 18005KT P6SM BKN020
      AMD LTD TO CLD VIS AND WIND=

USA.gov is the U.S. government's official web portal to all federal, state and local government web resources and services.